createdAt,value
2023-02-14T05:50:44.660Z,-1.92
2023-02-14T05:53:46.492Z,-2.17
2023-02-14T05:56:51.886Z,-2.22
2023-02-14T05:59:56.567Z,-2.14
2023-02-14T06:02:58.394Z,-2.18
2023-02-14T06:06:06.404Z,-2.16
2023-02-14T06:09:10.922Z,-2.15
2023-02-14T06:12:12.879Z,-1.94
2023-02-14T06:15:16.126Z,-2.10
2023-02-14T06:18:17.917Z,-2.04
2023-02-14T06:21:43.656Z,-1.94
2023-02-14T06:24:45.670Z,-1.98
2023-02-14T06:27:49.377Z,-2.15
2023-02-14T06:30:52.421Z,-2.23
2023-02-14T06:33:55.050Z,-2.23
2023-02-14T06:37:02.289Z,-2.26
2023-02-14T06:40:04.705Z,-2.16
2023-02-14T06:43:07.790Z,-2.15
2023-02-14T06:46:10.562Z,-2.10
2023-02-14T06:49:12.596Z,-2.03
2023-02-14T06:52:15.817Z,-2.07
2023-02-14T06:55:18.173Z,-2.10
2023-02-14T06:58:21.819Z,-2.02
2023-02-14T07:01:24.208Z,-2.04
2023-02-14T07:04:26.453Z,-2.00
2023-02-14T07:07:34.873Z,-1.89
2023-02-14T07:10:37.046Z,-1.85
2023-02-14T07:13:38.899Z,-1.86
2023-02-14T07:16:41.976Z,-1.85
2023-02-14T07:19:45.971Z,-1.80
2023-02-14T07:22:51.259Z,-1.73
2023-02-14T07:25:53.047Z,-1.72
2023-02-14T07:28:57.487Z,-1.60
2023-02-14T07:31:59.431Z,-1.57
2023-02-14T07:35:01.277Z,-1.70
2023-02-14T07:38:04.641Z,-1.54
2023-02-14T07:41:06.734Z,-1.57
2023-02-14T07:44:08.598Z,-1.55
2023-02-14T07:47:10.903Z,-1.48
2023-02-14T07:50:12.764Z,-1.37
2023-02-14T07:53:16.762Z,-1.54
2023-02-14T07:56:19.087Z,-1.61
2023-02-14T07:59:21.280Z,-1.56
2023-02-14T08:02:23.244Z,-1.59
2023-02-14T08:05:25.081Z,-1.53
2023-02-14T08:08:30.564Z,-1.47
2023-02-14T08:11:35.108Z,-1.52
2023-02-14T08:14:38.818Z,-1.49
2023-02-14T08:17:40.633Z,-1.38
2023-02-14T08:20:42.390Z,-1.45
2023-02-14T08:23:48.037Z,-1.40
2023-02-14T08:26:49.780Z,-1.43
2023-02-14T08:29:53.368Z,-1.32
2023-02-14T08:32:55.283Z,-1.26
2023-02-14T08:35:57.079Z,-1.22
2023-02-14T08:39:04.429Z,-1.14
2023-02-14T08:42:06.339Z,-1.04
2023-02-14T08:45:10.278Z,-0.90
2023-02-14T08:48:12.810Z,-0.87
2023-02-14T08:51:16.598Z,-0.83
2023-02-14T08:54:21.999Z,-0.79
2023-02-14T08:57:25.402Z,-0.68
2023-02-14T09:00:27.542Z,-0.70
2023-02-14T09:03:31.142Z,-0.68
2023-02-14T09:06:33.017Z,-0.70
2023-02-14T09:09:41.487Z,-0.63
2023-02-14T09:12:43.321Z,-0.59
2023-02-14T09:15:45.128Z,-0.63
2023-02-14T09:18:49.097Z,-0.54
2023-02-14T09:21:51.010Z,-0.54
2023-02-14T09:24:55.328Z,-0.43
2023-02-14T09:27:59.291Z,-0.42
2023-02-14T09:31:09.313Z,-0.30
2023-02-14T09:34:11.267Z,-0.34
2023-02-14T09:37:17.023Z,-0.28
2023-02-14T09:40:21.009Z,-0.29
2023-02-14T09:43:30.310Z,-0.25
2023-02-14T09:46:40.651Z,-0.17
2023-02-14T09:49:43.279Z,-0.01
2023-02-14T09:52:51.347Z,-0.09
2023-02-14T09:56:04.009Z,-0.05
2023-02-14T09:59:13.016Z,0.01
2023-02-14T10:02:26.921Z,0.06
2023-02-14T10:05:40.667Z,0.15
2023-02-14T10:08:55.815Z,0.22
2023-02-14T10:12:01.907Z,0.26
2023-02-14T10:15:14.870Z,0.28
2023-02-14T10:18:23.134Z,0.36
2023-02-14T10:21:30.841Z,0.46
2023-02-14T10:24:38.833Z,0.46
2023-02-14T10:27:45.887Z,0.38
2023-02-14T10:31:04.601Z,0.45
2023-02-14T10:34:14.760Z,0.39
2023-02-14T10:37:27.906Z,0.42
2023-02-14T10:40:48.671Z,0.52
2023-02-14T10:44:04.997Z,0.63
2023-02-14T10:47:17.372Z,0.74
2023-02-14T10:50:23.844Z,0.88
2023-02-14T10:53:33.910Z,0.94
2023-02-14T10:56:45.485Z,0.95
2023-02-14T10:59:53.268Z,0.93
2023-02-14T11:02:59.257Z,1.07
2023-02-14T11:06:02.958Z,1.03
2023-02-14T11:09:04.864Z,1.03
2023-02-14T11:12:17.556Z,1.14
2023-02-14T11:15:24.828Z,1.23
2023-02-14T11:18:28.113Z,1.26
2023-02-14T11:21:37.919Z,1.29
2023-02-14T11:24:40.363Z,1.32
2023-02-14T11:27:44.156Z,1.34
2023-02-14T11:30:51.146Z,1.42
2023-02-14T11:33:53.886Z,1.47
2023-02-14T11:36:56.729Z,1.50
2023-02-14T11:40:02.011Z,1.57
2023-02-14T11:43:19.516Z,1.50
2023-02-14T11:46:34.068Z,1.49
2023-02-14T11:49:38.219Z,1.51
2023-02-14T11:52:50.077Z,1.61
2023-02-14T11:55:53.035Z,1.60
2023-02-14T11:58:57.592Z,1.62
2023-02-14T12:02:04.270Z,1.63
2023-02-14T12:05:17.861Z,1.67
2023-02-14T12:08:26.708Z,1.64
2023-02-14T12:11:28.480Z,1.68
2023-02-14T12:14:31.797Z,1.74
2023-02-14T12:17:39.463Z,1.83
2023-02-14T12:20:49.708Z,1.75
2023-02-14T12:24:02.184Z,1.72
2023-02-14T12:27:15.824Z,1.77
2023-02-14T12:30:19.711Z,1.79
2023-02-14T12:33:23.368Z,1.80
2023-02-14T12:36:39.551Z,1.85
2023-02-14T12:39:55.226Z,1.88
2023-02-14T12:43:12.405Z,1.84
2023-02-14T12:50:03.799Z,1.90
2023-02-14T12:53:27.636Z,1.98
2023-02-14T12:56:42.445Z,2.03
2023-02-14T12:59:58.331Z,2.10
2023-02-14T13:03:26.707Z,2.01
2023-02-14T13:06:31.693Z,2.00
2023-02-14T13:09:44.129Z,1.99
2023-02-14T13:12:53.812Z,2.02
2023-02-14T13:16:04.696Z,2.08
2023-02-14T13:19:17.951Z,2.12
2023-02-14T13:22:25.051Z,2.09
2023-02-14T13:25:29.776Z,2.08
2023-02-14T13:28:32.738Z,2.13
2023-02-14T13:31:34.674Z,2.12
2023-02-14T13:34:41.434Z,2.06
2023-02-14T13:37:49.818Z,2.00
2023-02-14T13:40:52.760Z,1.99
2023-02-14T13:43:56.221Z,2.01
2023-02-14T13:46:58.219Z,1.96
2023-02-14T13:50:04.475Z,1.94
2023-02-14T13:53:12.144Z,1.93
2023-02-14T13:56:34.581Z,1.93
2023-02-14T13:59:36.457Z,1.91
2023-02-14T14:02:44.527Z,1.94
2023-02-14T14:06:03.487Z,1.98
2023-02-14T14:09:10.740Z,1.95
2023-02-14T14:12:39.863Z,1.81
2023-02-14T14:16:26.086Z,1.79
2023-02-14T14:19:40.242Z,1.85
2023-02-14T14:22:47.137Z,1.94
2023-02-14T14:25:50.393Z,1.97
2023-02-14T14:28:52.192Z,2.01
2023-02-14T14:31:54.132Z,2.05
2023-02-14T14:34:58.060Z,2.06
2023-02-14T14:38:01.611Z,2.10
2023-02-14T14:41:04.843Z,2.06
2023-02-14T14:44:07.242Z,2.00
2023-02-14T14:47:15.167Z,2.02
2023-02-14T14:50:21.927Z,1.95
2023-02-14T14:53:28.729Z,1.93
2023-02-14T14:56:33.180Z,1.95
2023-02-14T14:59:36.416Z,1.84
2023-02-14T15:02:38.348Z,1.85
2023-02-14T15:05:41.947Z,1.80
2023-02-14T15:08:44.091Z,1.81
2023-02-14T15:11:49.429Z,1.71
2023-02-14T15:14:52.106Z,1.65
2023-02-14T15:17:55.628Z,1.73
2023-02-14T15:20:57.860Z,1.75
2023-02-14T15:24:01.844Z,1.69
2023-02-14T15:27:05.478Z,1.73
2023-02-14T15:30:20.248Z,1.66
2023-02-14T15:33:22.260Z,1.63
2023-02-14T15:36:27.433Z,1.54
2023-02-14T15:39:33.912Z,1.46
2023-02-14T15:42:44.721Z,1.58
2023-02-14T15:45:48.319Z,1.53
2023-02-14T15:48:51.811Z,1.43
2023-02-14T15:51:55.356Z,1.40
2023-02-14T15:54:57.410Z,1.36
2023-02-14T15:58:04.298Z,1.44
2023-02-14T16:01:07.322Z,1.40
2023-02-14T16:04:10.357Z,1.31
2023-02-14T16:07:23.612Z,1.17
2023-02-14T16:10:28.149Z,1.30
2023-02-14T16:13:34.192Z,1.16
2023-02-14T16:16:58.041Z,1.13
2023-02-14T16:20:18.638Z,1.02
2023-02-14T16:23:26.579Z,0.89
2023-02-14T16:26:30.520Z,0.98
2023-02-14T16:29:35.238Z,0.96
2023-02-14T16:32:37.666Z,0.93
2023-02-14T16:35:40.833Z,0.77
2023-02-14T16:38:45.426Z,0.96
2023-02-14T16:41:48.749Z,0.91
2023-02-14T16:44:53.786Z,0.74
2023-02-14T16:47:55.840Z,0.77
2023-02-14T16:51:05.402Z,0.72
2023-02-14T16:54:12.413Z,0.55
2023-02-14T16:57:20.706Z,0.38
2023-02-14T17:00:24.926Z,0.34
2023-02-14T17:03:27.548Z,0.56
2023-02-14T17:06:32.621Z,0.51
2023-02-14T17:09:40.472Z,0.46
2023-02-14T17:12:45.903Z,0.50
2023-02-14T17:15:50.403Z,0.61
2023-02-14T17:18:53.602Z,0.67
2023-02-14T17:21:57.739Z,0.71
2023-02-14T17:25:00.707Z,0.76
2023-02-14T17:28:04.867Z,0.75
2023-02-14T17:31:11.968Z,0.85
2023-02-14T17:34:15.124Z,0.82
2023-02-14T17:37:18.086Z,0.89
2023-02-14T17:40:21.206Z,0.90
2023-02-14T17:43:23.601Z,0.98
2023-02-14T17:46:28.038Z,0.90
2023-02-14T17:49:30.590Z,0.86
2023-02-14T17:52:33.115Z,0.92
2023-02-14T17:55:37.507Z,0.81
2023-02-14T17:58:40.539Z,0.83
2023-02-14T18:01:44.686Z,0.84
2023-02-14T18:04:47.681Z,0.85
2023-02-14T18:07:51.953Z,0.78
2023-02-14T18:10:54.796Z,0.67
2023-02-14T18:13:58.143Z,0.63
2023-02-14T18:17:02.915Z,0.46
2023-02-14T18:20:07.250Z,0.51
2023-02-14T18:23:10.057Z,0.45
2023-02-14T18:26:14.948Z,0.46
2023-02-14T18:29:17.710Z,0.53
2023-02-14T18:32:22.117Z,0.42
2023-02-14T18:35:24.748Z,0.37
2023-02-14T18:38:27.439Z,0.31
2023-02-14T18:41:30.906Z,0.40
2023-02-14T18:44:33.942Z,0.39
2023-02-14T18:47:41.627Z,0.36
2023-02-14T18:50:44.757Z,0.33
2023-02-14T18:53:48.291Z,0.37
2023-02-14T18:56:53.067Z,0.32
2023-02-14T18:59:55.959Z,0.25
2023-02-14T19:03:01.410Z,0.21
2023-02-14T19:06:07.577Z,0.12
2023-02-14T19:09:13.164Z,0.09
2023-02-14T19:12:15.656Z,-0.02
2023-02-14T19:15:18.684Z,-0.01
2023-02-14T19:18:27.101Z,0.05
2023-02-14T19:21:31.854Z,0.07
2023-02-14T19:24:35.051Z,0.09
2023-02-14T19:27:37.713Z,0.04
2023-02-14T19:30:41.161Z,-0.06
2023-02-14T19:33:49.248Z,-0.04
2023-02-14T19:36:57.015Z,-0.26
2023-02-14T19:40:00.111Z,-0.21
2023-02-14T19:43:03.251Z,-0.17
2023-02-14T19:46:07.135Z,-0.17
2023-02-14T19:49:13.173Z,-0.25
2023-02-14T19:52:25.785Z,-0.17
2023-02-14T19:55:29.284Z,-0.20
2023-02-14T19:58:32.153Z,-0.51
2023-02-14T20:01:36.791Z,-0.58
2023-02-14T20:04:42.865Z,-0.72
2023-02-14T20:07:46.503Z,-0.49
2023-02-14T20:10:50.469Z,-0.44
2023-02-14T20:13:55.650Z,-0.39
2023-02-14T20:17:01.076Z,-0.35
2023-02-14T20:20:08.447Z,-0.34
2023-02-14T20:23:12.607Z,-0.45
2023-02-14T20:26:16.711Z,-0.50
2023-02-14T20:29:20.772Z,-0.49
2023-02-14T20:32:24.864Z,-0.53
2023-02-14T20:35:31.880Z,-0.64
2023-02-14T20:38:36.173Z,-0.57
2023-02-14T20:41:39.963Z,-0.59
2023-02-14T20:44:43.180Z,-0.73
2023-02-14T20:47:49.164Z,-0.70
2023-02-14T20:50:58.957Z,-0.66
2023-02-14T20:54:04.475Z,-0.71
2023-02-14T20:57:06.975Z,-0.67
2023-02-14T21:00:10.877Z,-0.72
2023-02-14T21:03:15.104Z,-0.68
2023-02-14T21:06:21.316Z,-0.64
2023-02-14T21:09:24.178Z,-0.67
2023-02-14T21:12:27.170Z,-0.70
2023-02-14T21:15:30.119Z,-0.74
2023-02-14T21:18:33.750Z,-0.79
2023-02-14T21:21:38.746Z,-0.77
2023-02-14T21:24:41.292Z,-0.82
2023-02-14T21:27:43.867Z,-0.85
2023-02-14T21:30:46.912Z,-0.89
2023-02-14T21:33:54.981Z,-0.85
2023-02-14T21:36:58.796Z,-0.98
2023-02-14T21:40:01.814Z,-0.90
2023-02-14T21:43:05.291Z,-1.05
2023-02-14T21:46:10.350Z,-1.21
2023-02-14T21:49:13.452Z,-1.07
2023-02-14T21:52:20.733Z,-1.11
2023-02-14T21:55:23.920Z,-1.25
2023-02-14T21:58:26.555Z,-1.21
2023-02-14T22:01:30.696Z,-1.04
2023-02-14T22:04:32.599Z,-0.98
2023-02-14T22:07:36.193Z,-1.04
2023-02-14T22:10:39.399Z,-1.07
2023-02-14T22:13:41.246Z,-0.97
2023-02-14T22:16:43.132Z,-0.94
2023-02-14T22:19:48.078Z,-0.93
2023-02-14T22:22:51.279Z,-1.17
2023-02-14T22:25:53.093Z,-1.10
2023-02-14T22:28:57.268Z,-0.99
2023-02-14T22:31:59.144Z,-1.11
2023-02-14T22:35:00.946Z,-1.13
2023-02-14T22:38:04.226Z,-1.08
2023-02-14T22:41:07.680Z,-1.08
2023-02-14T22:44:09.612Z,-1.07
2023-02-14T22:47:11.403Z,-1.11
2023-02-14T22:50:13.161Z,-1.12
2023-02-14T22:53:16.332Z,-1.06
2023-02-14T22:56:20.541Z,-1.15
2023-02-14T22:59:23.814Z,-1.32
2023-02-14T23:02:25.618Z,-1.28
2023-02-14T23:05:27.392Z,-1.46
2023-02-14T23:08:32.874Z,-1.30
2023-02-14T23:11:36.729Z,-1.29
2023-02-14T23:14:39.630Z,-1.31
2023-02-14T23:17:41.408Z,-1.35
2023-02-14T23:20:43.180Z,-1.35
2023-02-14T23:23:46.348Z,-1.38
2023-02-14T23:26:48.159Z,-1.35
2023-02-14T23:29:50.133Z,-1.34
2023-02-14T23:32:51.922Z,-1.49
2023-02-14T23:35:53.738Z,-1.46
2023-02-14T23:38:56.943Z,-1.44
2023-02-14T23:41:58.725Z,-1.38
2023-02-14T23:45:00.598Z,-1.29
2023-02-14T23:48:03.519Z,-1.35
2023-02-14T23:51:05.296Z,-1.39
2023-02-14T23:54:08.891Z,-1.32
2023-02-14T23:57:10.664Z,-1.44
